createdAt,value
2022-12-23T00:01:09.335Z,7.09
2022-12-23T00:03:36.905Z,7.09
2022-12-23T00:06:12.347Z,7.07
2022-12-23T00:08:40.596Z,7.08
2022-12-23T00:11:13.101Z,7.08
2022-12-23T00:13:58.953Z,7.03
2022-12-23T00:16:26.588Z,7.03
2022-12-23T00:18:54.462Z,7.03
2022-12-23T00:21:22.166Z,7.14
2022-12-23T00:23:51.256Z,7.16
2022-12-23T00:26:24.628Z,7.13
2022-12-23T00:28:52.950Z,7.10
2022-12-23T00:31:21.244Z,7.01
2022-12-23T00:33:50.744Z,7.06
2022-12-23T00:36:27.966Z,7.08
2022-12-23T00:39:16.087Z,7.06
2022-12-23T00:42:02.560Z,7.03
2022-12-23T00:44:30.230Z,7.01
2022-12-23T00:46:57.596Z,7.02
2022-12-23T00:49:43.694Z,7.03
2022-12-23T00:52:15.521Z,7.01
2022-12-23T00:54:43.037Z,7.00
2022-12-23T00:57:10.615Z,6.99
2022-12-23T00:59:40.949Z,7.01
2022-12-23T01:02:30.572Z,7.00
2022-12-23T01:05:16.247Z,6.98
2022-12-23T01:07:43.615Z,6.99
2022-12-23T01:10:11.222Z,7.01
2022-12-23T01:12:38.623Z,7.00
2022-12-23T01:15:06.624Z,7.01
2022-12-23T01:17:33.981Z,7.00
2022-12-23T01:20:01.313Z,6.99
2022-12-23T01:22:28.708Z,6.96
2022-12-23T01:24:56.112Z,6.94
2022-12-23T01:27:23.506Z,6.96
2022-12-23T01:29:50.846Z,6.97
2022-12-23T01:32:18.259Z,6.99
2022-12-23T01:34:45.706Z,7.01
2022-12-23T01:37:13.085Z,6.99
2022-12-23T01:39:40.468Z,7.03
2022-12-23T01:42:35.224Z,7.05
2022-12-23T01:45:28.670Z,7.00
2022-12-23T01:48:11.233Z,7.08
2022-12-23T01:50:56.540Z,7.13
2022-12-23T01:53:31.460Z,7.10
2022-12-23T01:56:05.672Z,7.04
2022-12-23T01:58:43.564Z,7.03
2022-12-23T02:01:30.848Z,7.01
2022-12-23T02:04:02.667Z,7.00
2022-12-23T02:07:09.438Z,6.97
2022-12-23T02:09:39.043Z,6.99
2022-12-23T02:12:42.628Z,6.97
2022-12-23T02:15:47.717Z,7.00
2022-12-23T02:18:24.260Z,7.05
2022-12-23T02:21:22.180Z,7.02
2022-12-23T02:24:23.571Z,7.00
2022-12-23T02:27:14.538Z,7.09
2022-12-23T02:29:51.055Z,7.15
2022-12-23T02:32:27.740Z,7.09
2022-12-23T02:35:21.155Z,7.01
2022-12-23T02:38:13.855Z,7.00
2022-12-23T02:41:04.788Z,6.97
2022-12-23T02:43:37.955Z,7.01
2022-12-23T02:46:25.332Z,7.00
2022-12-23T02:49:01.807Z,7.03
2022-12-23T02:51:35.723Z,7.05
2022-12-23T02:54:07.805Z,7.07
2022-12-23T02:56:40.270Z,7.05
2022-12-23T02:59:17.503Z,7.01
2022-12-23T03:01:45.882Z,7.04
2022-12-23T03:04:14.803Z,7.06
2022-12-23T03:06:46.416Z,7.01
2022-12-23T03:09:23.368Z,7.00
2022-12-23T03:12:06.277Z,7.00
2022-12-23T03:14:59.766Z,7.00
2022-12-23T03:17:40.772Z,7.01
2022-12-23T03:20:11.488Z,7.00
2022-12-23T03:22:43.811Z,7.08
2022-12-23T03:25:24.330Z,7.04
2022-12-23T03:28:03.460Z,7.12
2022-12-23T03:30:33.064Z,7.11
2022-12-23T03:33:12.737Z,7.07
2022-12-23T03:35:51.563Z,7.06
2022-12-23T03:38:20.021Z,7.05
2022-12-23T03:40:57.349Z,7.08
2022-12-23T03:43:33.180Z,7.11
2022-12-23T03:46:09.082Z,7.12
2022-12-23T03:48:43.105Z,7.07
2022-12-23T03:51:16.321Z,7.06
2022-12-23T03:54:03.430Z,7.03
2022-12-23T03:56:40.099Z,6.94
2022-12-23T03:59:17.840Z,6.88
2022-12-23T04:01:57.309Z,6.87
2022-12-23T04:04:29.878Z,6.90
2022-12-23T04:07:10.447Z,6.90
2022-12-23T04:09:38.349Z,6.91
2022-12-23T04:12:07.949Z,6.81
2022-12-23T04:14:36.188Z,6.93
2022-12-23T04:17:04.580Z,6.91
2022-12-23T04:19:34.951Z,6.91
2022-12-23T04:22:02.390Z,6.90
2022-12-23T04:24:29.893Z,6.89
2022-12-23T04:26:57.273Z,6.83
2022-12-23T04:29:24.727Z,6.85
2022-12-23T04:31:52.192Z,6.77
2022-12-23T04:34:19.674Z,6.86
2022-12-23T04:36:47.146Z,6.85
2022-12-23T04:39:14.757Z,6.78
2022-12-23T04:41:42.199Z,6.77
2022-12-23T04:44:09.556Z,6.93
2022-12-23T04:46:37.139Z,6.92
2022-12-23T04:49:04.619Z,6.84
2022-12-23T04:51:32.048Z,6.82
2022-12-23T04:53:59.460Z,6.92
2022-12-23T04:56:26.899Z,6.94
2022-12-23T04:58:54.395Z,6.96
2022-12-23T05:01:21.834Z,6.95
2022-12-23T05:03:49.290Z,6.87
2022-12-23T05:06:16.777Z,6.88
2022-12-23T05:08:44.242Z,6.91
2022-12-23T05:11:11.843Z,6.89
2022-12-23T05:13:39.290Z,6.85
2022-12-23T05:16:07.247Z,6.91
2022-12-23T05:18:34.695Z,6.94
2022-12-23T05:21:02.221Z,6.88
2022-12-23T05:23:29.685Z,6.85
2022-12-23T05:25:57.161Z,6.94
2022-12-23T05:28:27.339Z,7.00
2022-12-23T05:31:06.335Z,6.89
2022-12-23T05:33:35.181Z,6.96
2022-12-23T05:36:03.170Z,6.93
2022-12-23T05:38:30.753Z,6.90
2022-12-23T05:40:58.546Z,6.98
2022-12-23T05:43:26.099Z,6.89
2022-12-23T05:45:53.713Z,6.87
2022-12-23T05:48:21.497Z,6.98
2022-12-23T05:50:51.036Z,6.95
2022-12-23T05:53:19.591Z,7.01
2022-12-23T05:55:47.073Z,7.00
2022-12-23T05:58:14.591Z,7.04
2022-12-23T06:00:42.357Z,6.98
2022-12-23T06:03:09.980Z,7.05
2022-12-23T06:05:39.376Z,6.95
2022-12-23T06:08:06.822Z,6.92
2022-12-23T06:10:34.235Z,7.00
2022-12-23T06:13:01.662Z,7.07
2022-12-23T06:15:29.077Z,6.96
2022-12-23T06:17:56.670Z,6.88
2022-12-23T06:20:24.156Z,6.86
2022-12-23T06:22:52.057Z,6.82
2022-12-23T06:25:19.649Z,6.89
2022-12-23T06:27:47.228Z,6.85
2022-12-23T06:30:15.009Z,7.06
2022-12-23T06:32:43.054Z,7.00
2022-12-23T06:35:10.591Z,6.88
2022-12-23T06:37:38.017Z,6.99
2022-12-23T06:40:06.162Z,6.96
2022-12-23T06:42:33.592Z,6.96
2022-12-23T06:45:00.969Z,6.96
2022-12-23T06:47:28.452Z,6.87
2022-12-23T06:49:55.817Z,6.98
2022-12-23T06:52:23.414Z,7.10
2022-12-23T06:54:50.894Z,7.16
2022-12-23T06:57:18.513Z,7.05
2022-12-23T06:59:48.169Z,7.00
2022-12-23T07:02:15.871Z,7.15
2022-12-23T07:04:43.654Z,7.23
2022-12-23T07:07:11.083Z,7.12
2022-12-23T07:09:39.378Z,7.07
2022-12-23T07:12:08.498Z,7.05
2022-12-23T07:14:35.927Z,6.98
2022-12-23T07:17:03.912Z,6.96
2022-12-23T07:19:31.511Z,7.10
2022-12-23T07:21:58.877Z,7.11
2022-12-23T07:24:26.253Z,7.09
2022-12-23T07:26:55.836Z,7.02
2022-12-23T07:29:23.159Z,7.08
2022-12-23T07:31:50.564Z,7.08
2022-12-23T07:34:17.914Z,7.04
2022-12-23T07:36:45.383Z,7.04
2022-12-23T07:39:12.719Z,7.05
2022-12-23T07:41:44.807Z,7.00
2022-12-23T07:44:16.506Z,7.08
2022-12-23T07:46:46.888Z,7.08
2022-12-23T07:49:14.272Z,7.11
2022-12-23T07:51:41.680Z,7.13
2022-12-23T07:54:11.838Z,7.19
2022-12-23T07:56:39.612Z,7.32
2022-12-23T07:59:07.023Z,7.33
2022-12-23T08:01:34.507Z,7.29
2022-12-23T08:04:02.036Z,7.31
2022-12-23T08:06:29.500Z,7.31
2022-12-23T08:08:56.880Z,7.25
2022-12-23T08:11:24.520Z,7.26
2022-12-23T08:13:52.840Z,7.22
2022-12-23T08:16:20.401Z,7.21
2022-12-23T08:18:47.771Z,7.25
2022-12-23T08:21:19.337Z,7.29
2022-12-23T08:23:47.555Z,7.35
2022-12-23T08:26:19.314Z,7.42
2022-12-23T08:28:47.192Z,7.43
2022-12-23T08:31:18.839Z,7.52
2022-12-23T08:33:49.111Z,7.57
2022-12-23T08:36:23.492Z,7.58
2022-12-23T08:38:55.897Z,7.66
2022-12-23T08:41:26.720Z,7.63
2022-12-23T08:43:54.333Z,7.67
2022-12-23T08:46:22.036Z,7.66
2022-12-23T08:48:50.136Z,7.71
2022-12-23T08:51:20.469Z,7.76
2022-12-23T08:53:48.433Z,7.92
2022-12-23T08:56:22.495Z,7.93
2022-12-23T08:58:52.763Z,7.90
2022-12-23T09:01:22.646Z,7.82
2022-12-23T09:03:53.785Z,7.85
2022-12-23T09:06:29.529Z,7.90
2022-12-23T09:08:58.146Z,8.04
2022-12-23T09:11:27.663Z,8.10
2022-12-23T09:13:56.004Z,8.31
2022-12-23T09:16:24.012Z,8.35
2022-12-23T09:18:51.555Z,8.44
2022-12-23T09:21:23.761Z,8.59
2022-12-23T09:23:51.353Z,8.88
2022-12-23T09:26:22.084Z,8.88
2022-12-23T09:28:49.685Z,9.22
2022-12-23T09:31:17.401Z,9.53
2022-12-23T09:33:49.854Z,9.92
2022-12-23T09:36:17.756Z,10.01
2022-12-23T09:38:45.444Z,10.28
2022-12-23T09:41:31.324Z,10.15
2022-12-23T09:44:32.180Z,10.02
2022-12-23T09:47:06.580Z,10.19
2022-12-23T09:49:34.570Z,9.99
2022-12-23T09:52:05.284Z,10.02
2022-12-23T09:54:42.403Z,9.77
2022-12-23T09:57:15.845Z,9.75
2022-12-23T10:00:03.301Z,9.71
2022-12-23T10:02:52.081Z,9.71
2022-12-23T10:05:28.563Z,9.53
2022-12-23T10:08:11.763Z,9.53
2022-12-23T10:10:49.930Z,9.43
2022-12-23T10:13:42.068Z,9.12
2022-12-23T10:16:23.009Z,9.08
2022-12-23T10:18:57.080Z,9.05
2022-12-23T10:21:37.345Z,9.04
2022-12-23T10:24:12.695Z,9.16
2022-12-23T10:26:53.502Z,9.09
2022-12-23T10:29:26.866Z,9.13
2022-12-23T10:32:13.063Z,9.12
2022-12-23T10:35:15.320Z,8.98
2022-12-23T10:37:59.852Z,9.18
2022-12-23T10:40:57.681Z,9.12
2022-12-23T10:44:08.811Z,9.19
2022-12-23T10:47:02.858Z,9.15
2022-12-23T10:50:04.245Z,9.28
2022-12-23T10:52:36.106Z,9.75
2022-12-23T10:55:06.858Z,10.02
2022-12-23T10:57:34.221Z,10.03
2022-12-23T11:00:01.724Z,10.07
2022-12-23T11:03:02.138Z,10.27
2022-12-23T11:05:30.607Z,10.11
2022-12-23T11:08:00.228Z,10.10
2022-12-23T11:10:33.094Z,10.22
2022-12-23T11:13:01.388Z,10.49
2022-12-23T11:15:35.001Z,10.49
2022-12-23T11:18:08.569Z,10.78
2022-12-23T11:20:37.458Z,11.04
2022-12-23T11:23:06.577Z,11.19
2022-12-23T11:25:43.493Z,11.10
2022-12-23T11:28:10.786Z,11.42
2022-12-23T11:30:55.437Z,11.05
2022-12-23T11:33:27.908Z,10.81
2022-12-23T11:36:14.152Z,10.71
2022-12-23T11:39:04.715Z,10.47
2022-12-23T11:41:49.837Z,10.25
2022-12-23T11:44:46.632Z,10.23
2022-12-23T11:47:23.265Z,10.07
2022-12-23T11:49:54.324Z,9.91
2022-12-23T11:52:26.775Z,9.94
2022-12-23T11:54:57.366Z,9.95
2022-12-23T11:57:44.536Z,10.18
2022-12-23T12:00:42.710Z,9.79
2022-12-23T12:03:20.070Z,9.68
2022-12-23T12:06:01.195Z,9.64
2022-12-23T12:08:35.901Z,9.57
2022-12-23T12:11:13.285Z,9.66
2022-12-23T12:13:54.319Z,9.65
2022-12-23T12:16:27.663Z,9.72
2022-12-23T12:19:01.791Z,9.95
2022-12-23T12:21:35.118Z,9.82
2022-12-23T12:24:18.787Z,9.82
2022-12-23T12:26:51.430Z,9.82
2022-12-23T12:29:28.760Z,9.78
2022-12-23T12:31:59.476Z,9.80
2022-12-23T12:35:01.572Z,9.81
2022-12-23T12:37:45.186Z,9.80
2022-12-23T12:40:12.571Z,9.81
2022-12-23T12:42:47.928Z,9.78
2022-12-23T12:45:25.640Z,9.73
2022-12-23T12:48:30.743Z,9.73
2022-12-23T12:51:19.530Z,9.90
2022-12-23T12:54:22.489Z,10.03
2022-12-23T12:56:55.111Z,10.19
2022-12-23T12:59:27.108Z,10.29
2022-12-23T13:02:13.232Z,10.13
2022-12-23T13:05:03.530Z,9.96
2022-12-23T13:07:46.032Z,9.90
2022-12-23T13:10:47.632Z,9.73
2022-12-23T13:13:32.385Z,9.63
2022-12-23T13:16:22.480Z,9.57
2022-12-23T13:19:14.682Z,9.66
2022-12-23T13:21:54.145Z,9.52
2022-12-23T13:24:56.845Z,9.50
2022-12-23T13:27:34.419Z,9.43
2022-12-23T13:30:06.666Z,9.42
2022-12-23T13:32:46.237Z,9.41
2022-12-23T13:35:48.699Z,9.36
2022-12-23T13:38:34.461Z,9.31
2022-12-23T13:41:20.136Z,9.25
2022-12-23T13:43:54.102Z,9.23
2022-12-23T13:46:59.941Z,9.26
2022-12-23T13:49:53.158Z,9.26
2022-12-23T13:52:40.233Z,9.29
2022-12-23T13:55:32.242Z,9.28
2022-12-23T13:58:11.785Z,9.22
2022-12-23T14:00:39.492Z,9.29
2022-12-23T14:03:09.935Z,9.24
2022-12-23T14:05:47.796Z,9.19
2022-12-23T14:08:18.426Z,9.15
2022-12-23T14:11:00.010Z,9.07
2022-12-23T14:13:39.093Z,9.04
2022-12-23T14:16:18.597Z,9.04
2022-12-23T14:19:21.507Z,9.02
2022-12-23T14:22:12.998Z,9.04
2022-12-23T14:24:43.277Z,9.06
2022-12-23T14:27:32.401Z,9.05
2022-12-23T14:30:22.747Z,9.02
2022-12-23T14:33:04.689Z,9.06
2022-12-23T14:35:36.943Z,9.05
2022-12-23T14:38:09.585Z,9.04
2022-12-23T14:40:36.942Z,9.02
2022-12-23T14:43:22.946Z,9.01
2022-12-23T14:45:51.923Z,8.96
2022-12-23T14:48:34.571Z,8.99
2022-12-23T14:51:03.327Z,9.02
2022-12-23T14:53:33.360Z,9.12
2022-12-23T14:56:09.989Z,9.07
2022-12-23T14:58:43.384Z,9.01
2022-12-23T15:01:15.386Z,8.95
2022-12-23T15:03:45.339Z,8.96
2022-12-23T15:06:17.797Z,8.90
2022-12-23T15:08:47.390Z,8.81
2022-12-23T15:11:21.767Z,8.77
2022-12-23T15:13:52.868Z,8.71
2022-12-23T15:16:29.052Z,8.72
2022-12-23T15:19:00.418Z,8.66
2022-12-23T15:21:33.818Z,8.57
2022-12-23T15:24:01.230Z,8.57
2022-12-23T15:26:32.985Z,8.51
2022-12-23T15:29:00.726Z,8.40
2022-12-23T15:31:52.623Z,8.37
2022-12-23T15:34:38.296Z,8.30
2022-12-23T15:37:11.649Z,8.26
2022-12-23T15:39:44.885Z,8.15
2022-12-23T15:42:21.168Z,8.13
2022-12-23T15:44:48.557Z,8.08
2022-12-23T15:47:39.483Z,8.04
2022-12-23T15:50:13.692Z,8.03
2022-12-23T15:52:45.029Z,7.97
2022-12-23T15:55:24.478Z,7.96
2022-12-23T15:57:52.805Z,7.91
2022-12-23T16:00:21.852Z,7.95
2022-12-23T16:03:01.845Z,7.94
2022-12-23T16:05:38.233Z,8.00
2022-12-23T16:08:13.385Z,7.99
2022-12-23T16:10:41.775Z,7.94
2022-12-23T16:13:20.242Z,7.91
2022-12-23T16:15:50.831Z,7.98
2022-12-23T16:18:28.526Z,7.94
2022-12-23T16:21:00.470Z,7.97
2022-12-23T16:23:36.935Z,7.94
2022-12-23T16:26:04.417Z,7.95
2022-12-23T16:28:42.395Z,7.97
2022-12-23T16:31:10.912Z,7.99
2022-12-23T16:33:48.162Z,7.99
2022-12-23T16:36:18.536Z,7.98
2022-12-23T16:38:46.528Z,8.00
2022-12-23T16:41:14.253Z,8.00
2022-12-23T16:43:51.280Z,8.02
2022-12-23T16:46:22.211Z,8.01
2022-12-23T16:48:52.923Z,8.04
2022-12-23T16:51:23.605Z,8.09
2022-12-23T16:53:55.517Z,8.09
2022-12-23T16:56:24.401Z,8.09
2022-12-23T16:58:51.645Z,8.12
2022-12-23T17:01:24.985Z,8.14
2022-12-23T17:03:52.609Z,8.16
2022-12-23T17:06:24.240Z,8.17
2022-12-23T17:08:53.215Z,8.17
2022-12-23T17:11:31.867Z,8.16
2022-12-23T17:14:04.630Z,8.17
2022-12-23T17:16:34.225Z,8.18
2022-12-23T17:19:01.848Z,8.18
2022-12-23T17:21:32.112Z,8.17
2022-12-23T17:24:09.122Z,8.18
2022-12-23T17:26:37.054Z,8.17
2022-12-23T17:29:05.089Z,8.18
2022-12-23T17:31:34.233Z,8.21
2022-12-23T17:34:02.357Z,8.20
2022-12-23T17:36:30.095Z,8.17
2022-12-23T17:38:57.518Z,8.18
2022-12-23T17:41:33.900Z,8.16
2022-12-23T17:44:01.521Z,8.16
2022-12-23T17:46:29.163Z,8.16
2022-12-23T17:48:58.883Z,8.16
2022-12-23T17:51:27.405Z,8.16
2022-12-23T17:53:57.975Z,8.14
2022-12-23T17:56:28.400Z,8.09
2022-12-23T17:58:55.790Z,8.15
2022-12-23T18:01:27.532Z,8.11
2022-12-23T18:03:56.826Z,8.09
2022-12-23T18:06:26.011Z,8.07
2022-12-23T18:08:53.527Z,8.09
2022-12-23T18:11:41.783Z,8.05
2022-12-23T18:14:27.602Z,8.09
2022-12-23T18:16:54.977Z,8.07
2022-12-23T18:19:22.496Z,8.08
2022-12-23T18:21:53.624Z,8.05
2022-12-23T18:24:21.042Z,8.08
2022-12-23T18:26:48.423Z,8.08
2022-12-23T18:29:15.751Z,8.10
2022-12-23T18:31:51.035Z,8.10
2022-12-23T18:34:19.652Z,8.22
2022-12-23T18:36:48.438Z,8.18
2022-12-23T18:39:16.102Z,8.24
2022-12-23T18:41:43.535Z,8.21
2022-12-23T18:44:20.850Z,8.24
2022-12-23T18:46:49.407Z,8.26
2022-12-23T18:49:17.056Z,8.21
2022-12-23T18:51:44.831Z,8.19
2022-12-23T18:54:16.401Z,8.22
2022-12-23T18:56:44.066Z,8.20
2022-12-23T18:59:24.223Z,8.17
2022-12-23T19:01:56.696Z,8.13
2022-12-23T19:04:24.219Z,8.17
2022-12-23T19:06:51.706Z,8.18
2022-12-23T19:09:22.025Z,8.14
2022-12-23T19:11:51.520Z,8.10
2022-12-23T19:14:19.060Z,8.12
2022-12-23T19:16:51.608Z,8.12
2022-12-23T19:19:20.828Z,8.12
2022-12-23T19:21:48.268Z,8.12
2022-12-23T19:24:15.632Z,8.10
2022-12-23T19:26:43.267Z,8.10
2022-12-23T19:29:10.608Z,8.05
2022-12-23T19:31:37.905Z,8.08
2022-12-23T19:34:08.230Z,8.04
2022-12-23T19:36:40.300Z,8.08
2022-12-23T19:39:15.919Z,8.09
2022-12-23T19:41:43.534Z,8.12
2022-12-23T19:44:10.890Z,8.18
2022-12-23T19:46:38.325Z,8.26
2022-12-23T19:49:05.716Z,8.20
2022-12-23T19:51:32.966Z,8.20
2022-12-23T19:54:00.377Z,8.20
2022-12-23T19:56:29.401Z,8.19
2022-12-23T19:58:56.756Z,8.18
2022-12-23T20:01:26.205Z,8.21
2022-12-23T20:03:56.778Z,8.29
2022-12-23T20:06:25.541Z,8.28
2022-12-23T20:08:59.716Z,8.26
2022-12-23T20:11:30.657Z,8.28
2022-12-23T20:13:59.737Z,8.26
2022-12-23T20:16:28.584Z,8.26
2022-12-23T20:18:59.372Z,8.30
2022-12-23T20:21:26.926Z,8.25
2022-12-23T20:23:54.562Z,8.17
2022-12-23T20:26:23.694Z,8.13
2022-12-23T20:28:51.247Z,8.13
2022-12-23T20:31:20.333Z,8.17
2022-12-23T20:33:49.163Z,8.13
2022-12-23T20:36:20.110Z,8.12
2022-12-23T20:38:48.396Z,8.14
2022-12-23T20:41:18.038Z,8.09
2022-12-23T20:43:52.493Z,8.10
2022-12-23T20:46:30.476Z,8.09
2022-12-23T20:48:57.996Z,8.12
2022-12-23T20:51:26.012Z,8.10
2022-12-23T20:53:59.574Z,8.10
2022-12-23T20:56:29.320Z,8.06
2022-12-23T20:59:02.550Z,8.05
2022-12-23T21:01:37.764Z,8.08
2022-12-23T21:04:15.702Z,8.06
2022-12-23T21:06:44.299Z,8.06
2022-12-23T21:09:15.685Z,8.12
2022-12-23T21:11:45.455Z,8.12
2022-12-23T21:14:14.460Z,8.11
2022-12-23T21:16:42.544Z,8.07
2022-12-23T21:19:23.615Z,8.09
2022-12-23T21:21:52.361Z,8.15
2022-12-23T21:24:20.681Z,8.08
2022-12-23T21:26:55.760Z,8.16
2022-12-23T21:29:24.542Z,8.13
2022-12-23T21:31:59.276Z,8.19
2022-12-23T21:34:26.720Z,8.31
2022-12-23T21:36:54.326Z,8.20
2022-12-23T21:39:21.721Z,8.11
2022-12-23T21:41:51.300Z,8.14
2022-12-23T21:44:21.477Z,8.17
2022-12-23T21:46:51.888Z,8.17
2022-12-23T21:49:20.405Z,8.16
2022-12-23T21:51:47.815Z,8.11
2022-12-23T21:54:15.304Z,8.09
2022-12-23T21:56:43.213Z,8.11
2022-12-23T21:59:14.739Z,8.00
2022-12-23T22:01:43.544Z,7.91
2022-12-23T22:04:11.695Z,8.07
2022-12-23T22:06:43.690Z,8.05
2022-12-23T22:09:14.273Z,8.03
2022-12-23T22:11:41.963Z,8.04
2022-12-23T22:14:12.276Z,8.03
2022-12-23T22:16:39.819Z,8.02
2022-12-23T22:19:08.744Z,8.11
2022-12-23T22:21:36.557Z,8.09
2022-12-23T22:24:04.190Z,8.04
2022-12-23T22:26:32.618Z,8.04
2022-12-23T22:29:02.284Z,8.14
2022-12-23T22:31:37.615Z,8.20
2022-12-23T22:34:06.123Z,8.11
2022-12-23T22:36:36.313Z,8.12
2022-12-23T22:39:04.624Z,8.14
2022-12-23T22:41:32.149Z,8.11
2022-12-23T22:44:00.004Z,8.23
2022-12-23T22:46:28.076Z,8.21
2022-12-23T22:48:56.393Z,8.20
2022-12-23T22:51:29.509Z,8.13
2022-12-23T22:53:57.867Z,8.04
2022-12-23T22:56:29.107Z,8.00
2022-12-23T22:58:56.500Z,7.99
2022-12-23T23:01:34.208Z,7.91
2022-12-23T23:04:03.418Z,7.89
2022-12-23T23:06:37.923Z,7.86
2022-12-23T23:09:12.854Z,7.92
2022-12-23T23:11:41.673Z,7.87
2022-12-23T23:14:09.151Z,7.87
2022-12-23T23:16:36.825Z,8.01
2022-12-23T23:19:05.618Z,8.15
2022-12-23T23:21:34.267Z,8.15
2022-12-23T23:24:01.727Z,7.81
2022-12-23T23:26:29.102Z,7.94
2022-12-23T23:28:56.718Z,8.00
2022-12-23T23:31:42.062Z,8.05
2022-12-23T23:34:11.409Z,8.04
2022-12-23T23:36:39.227Z,8.00
2022-12-23T23:39:06.742Z,7.96
2022-12-23T23:41:35.755Z,7.96
2022-12-23T23:44:03.443Z,7.92
2022-12-23T23:46:31.764Z,7.92
2022-12-23T23:48:59.479Z,7.90
2022-12-23T23:51:26.953Z,7.91
2022-12-23T23:53:54.299Z,7.89
2022-12-23T23:56:25.910Z,7.86
2022-12-23T23:58:54.543Z,7.89
